createdAt,value
2023-12-19T00:00:19.424Z,22.29
2023-12-19T00:01:19.466Z,22.22
2023-12-19T00:02:19.760Z,22.27
2023-12-19T00:03:19.591Z,22.26
2023-12-19T00:04:19.675Z,22.30
2023-12-19T00:05:19.607Z,22.27
2023-12-19T00:06:19.720Z,22.25
2023-12-19T00:07:19.660Z,22.22
2023-12-19T00:08:19.697Z,22.26
2023-12-19T00:09:19.809Z,22.28
2023-12-19T00:10:19.783Z,22.24
2023-12-19T00:11:19.835Z,22.23
2023-12-19T00:12:19.857Z,22.23
2023-12-19T00:13:19.864Z,22.23
2023-12-19T00:14:19.910Z,22.22
2023-12-19T00:15:20.037Z,22.18
2023-12-19T00:16:19.968Z,22.22
2023-12-19T00:17:20.058Z,22.22
2023-12-19T00:18:20.162Z,22.18
2023-12-19T00:19:20.296Z,22.16
2023-12-19T00:20:20.094Z,22.17
2023-12-19T00:21:20.204Z,22.11
2023-12-19T00:22:20.177Z,22.16
2023-12-19T00:23:20.230Z,22.16
2023-12-19T00:24:20.288Z,22.13
2023-12-19T00:25:20.259Z,22.12
2023-12-19T00:26:20.243Z,22.14
2023-12-19T00:27:20.478Z,22.15
2023-12-19T00:28:20.327Z,22.15
2023-12-19T00:29:20.336Z,22.11
2023-12-19T00:30:20.544Z,22.11
2023-12-19T00:31:20.563Z,22.13
2023-12-19T00:32:20.471Z,22.11
2023-12-19T00:33:20.656Z,22.08
2023-12-19T00:34:20.636Z,22.08
2023-12-19T00:35:20.553Z,22.09
2023-12-19T00:36:20.627Z,22.06
2023-12-19T00:37:20.675Z,22.05
2023-12-19T00:38:20.605Z,22.05
2023-12-19T00:39:20.731Z,22.08
2023-12-19T00:40:20.763Z,22.08
2023-12-19T00:41:20.756Z,22.07
2023-12-19T00:42:20.785Z,22.08
2023-12-19T00:43:20.771Z,22.05
2023-12-19T00:44:20.842Z,22.03
2023-12-19T00:45:21.079Z,22.03
2023-12-19T00:46:20.900Z,22.02
2023-12-19T00:47:20.918Z,22.00
2023-12-19T00:48:21.073Z,22.03
2023-12-19T00:49:20.934Z,21.95
2023-12-19T00:50:20.970Z,21.93
2023-12-19T00:51:21.004Z,21.97
2023-12-19T00:52:21.035Z,22.00
2023-12-19T00:53:21.048Z,21.95
2023-12-19T00:54:21.080Z,21.93
2023-12-19T00:55:21.094Z,21.95
2023-12-19T00:56:22.835Z,21.96
2023-12-19T00:57:21.167Z,21.97
2023-12-19T00:58:21.175Z,21.92
2023-12-19T00:59:21.179Z,21.95
2023-12-19T01:00:21.263Z,21.92
2023-12-19T01:01:21.325Z,21.93
2023-12-19T01:02:21.236Z,21.89
2023-12-19T01:03:21.456Z,21.90
2023-12-19T01:04:21.380Z,21.89
2023-12-19T01:05:21.305Z,21.91
2023-12-19T01:06:21.429Z,21.90
2023-12-19T01:07:21.398Z,21.89
2023-12-19T01:08:21.378Z,21.87
2023-12-19T01:09:21.528Z,21.91
2023-12-19T01:10:21.516Z,21.93
2023-12-19T01:11:21.450Z,21.92
2023-12-19T01:12:21.630Z,21.90
2023-12-19T01:13:21.496Z,21.88
2023-12-19T01:14:21.497Z,21.87
2023-12-19T01:15:21.602Z,21.84
2023-12-19T01:16:21.538Z,21.83
2023-12-19T01:17:21.602Z,21.82
2023-12-19T01:18:21.635Z,21.81
2023-12-19T01:19:21.675Z,21.81
2023-12-19T01:20:21.632Z,21.80
2023-12-19T01:21:21.650Z,21.82
2023-12-19T01:22:21.643Z,21.83
2023-12-19T01:23:21.702Z,21.83
2023-12-19T01:24:21.695Z,21.79
2023-12-19T01:25:21.767Z,21.81
2023-12-19T01:26:27.279Z,21.81
2023-12-19T01:27:22.758Z,21.79
2023-12-19T01:28:21.733Z,21.81
2023-12-19T01:29:21.758Z,21.81
2023-12-19T01:30:21.758Z,21.81
2023-12-19T01:31:21.809Z,21.83
2023-12-19T01:32:21.766Z,21.81
2023-12-19T01:33:22.003Z,21.78
2023-12-19T01:34:22.159Z,21.77
2023-12-19T01:35:21.777Z,21.75
2023-12-19T01:36:21.767Z,21.75
2023-12-19T01:37:21.757Z,21.72
2023-12-19T01:38:21.733Z,21.73
2023-12-19T01:39:21.772Z,21.77
2023-12-19T01:40:21.770Z,21.75
2023-12-19T01:41:21.766Z,21.69
2023-12-19T01:42:21.786Z,21.68
2023-12-19T01:43:21.733Z,21.62
2023-12-19T01:44:21.782Z,21.66
2023-12-19T01:45:21.790Z,21.64
2023-12-19T01:46:21.754Z,21.62
2023-12-19T01:47:21.772Z,21.64
2023-12-19T01:48:21.805Z,21.62
2023-12-19T01:49:21.888Z,21.64
2023-12-19T01:50:21.807Z,21.64
2023-12-19T01:51:21.809Z,21.64
2023-12-19T01:52:21.806Z,21.66
2023-12-19T01:53:21.756Z,21.66
2023-12-19T01:54:21.804Z,21.58
2023-12-19T01:55:21.833Z,21.60
2023-12-19T01:56:21.857Z,21.60
2023-12-19T01:57:21.843Z,21.58
2023-12-19T01:58:21.791Z,21.60
2023-12-19T01:59:21.805Z,21.60
2023-12-19T02:00:21.962Z,21.59
2023-12-19T02:01:21.943Z,21.62
2023-12-19T02:02:21.870Z,21.59
2023-12-19T02:03:21.912Z,21.64
2023-12-19T02:04:21.871Z,21.59
2023-12-19T02:05:21.921Z,21.58
2023-12-19T02:06:21.936Z,21.59
2023-12-19T02:07:21.924Z,21.57
2023-12-19T02:08:21.967Z,21.56
2023-12-19T02:09:22.004Z,21.55
2023-12-19T02:10:22.084Z,21.59
2023-12-19T02:11:22.057Z,21.58
2023-12-19T02:12:22.080Z,21.58
2023-12-19T02:13:22.133Z,21.58
2023-12-19T02:14:22.152Z,21.55
2023-12-19T02:15:22.180Z,21.57
2023-12-19T02:16:22.205Z,21.55
2023-12-19T02:17:22.205Z,21.57
2023-12-19T02:18:22.462Z,21.54
2023-12-19T02:19:22.358Z,21.56
2023-12-19T02:20:22.319Z,21.60
2023-12-19T02:21:22.390Z,21.59
2023-12-19T02:22:22.378Z,21.59
2023-12-19T02:23:22.432Z,21.57
2023-12-19T02:24:22.508Z,21.61
2023-12-19T02:25:22.500Z,21.58
2023-12-19T02:26:22.573Z,21.58
2023-12-19T02:27:22.693Z,21.56
2023-12-19T02:28:22.683Z,21.57
2023-12-19T02:29:22.780Z,21.54
2023-12-19T02:30:22.971Z,21.55
2023-12-19T02:31:22.988Z,21.54
2023-12-19T02:32:22.957Z,21.56
2023-12-19T02:33:23.027Z,21.54
2023-12-19T02:34:23.107Z,21.52
2023-12-19T02:35:23.039Z,21.57
2023-12-19T02:36:23.168Z,21.52
2023-12-19T02:37:23.217Z,21.52
2023-12-19T02:38:23.366Z,21.58
2023-12-19T02:39:23.402Z,21.60
2023-12-19T02:40:23.397Z,21.56
2023-12-19T02:41:23.414Z,21.52
2023-12-19T02:42:23.562Z,21.48
2023-12-19T02:43:23.585Z,21.46
2023-12-19T02:44:23.782Z,21.47
2023-12-19T02:45:23.806Z,21.49
2023-12-19T02:46:23.842Z,21.53
2023-12-19T02:47:23.982Z,21.47
2023-12-19T02:48:24.260Z,21.46
2023-12-19T02:49:24.135Z,21.47
2023-12-19T02:50:24.119Z,21.44
2023-12-19T02:51:24.213Z,21.43
2023-12-19T02:52:24.223Z,21.42
2023-12-19T02:53:24.292Z,21.42
2023-12-19T02:54:24.428Z,21.46
2023-12-19T02:55:24.443Z,21.41
2023-12-19T02:56:24.498Z,21.35
2023-12-19T02:57:24.649Z,21.42
2023-12-19T02:58:24.696Z,21.40
2023-12-19T02:59:24.764Z,21.38
2023-12-19T03:00:24.829Z,21.37
2023-12-19T03:01:24.966Z,21.36
2023-12-19T03:02:24.855Z,21.39
2023-12-19T03:03:25.070Z,21.32
2023-12-19T03:04:25.082Z,21.30
2023-12-19T03:05:25.121Z,21.31
2023-12-19T03:06:25.182Z,21.30
2023-12-19T03:07:25.200Z,21.29
2023-12-19T03:08:25.309Z,21.31
2023-12-19T03:09:25.409Z,21.32
2023-12-19T03:10:25.430Z,21.35
2023-12-19T03:11:25.503Z,21.37
2023-12-19T03:12:25.614Z,21.38
2023-12-19T03:13:25.657Z,21.32
2023-12-19T03:14:25.713Z,21.31
2023-12-19T03:15:25.990Z,21.31
2023-12-19T03:16:25.865Z,21.34
2023-12-19T03:17:25.940Z,21.31
2023-12-19T03:18:26.338Z,21.31
2023-12-19T03:19:26.242Z,21.34
2023-12-19T03:20:26.154Z,21.33
2023-12-19T03:21:26.251Z,21.26
2023-12-19T03:22:26.344Z,21.25
2023-12-19T03:23:26.343Z,21.28
2023-12-19T03:24:26.406Z,21.19
2023-12-19T03:25:26.478Z,21.18
2023-12-19T03:26:26.632Z,21.20
2023-12-19T03:27:26.690Z,21.25
2023-12-19T03:28:26.662Z,21.21
2023-12-19T03:29:26.745Z,21.20
2023-12-19T03:30:26.907Z,21.21
2023-12-19T03:31:27.069Z,21.25
2023-12-19T03:32:26.965Z,21.19
2023-12-19T03:33:27.063Z,21.16
2023-12-19T03:34:27.256Z,21.19
2023-12-19T03:35:27.150Z,21.19
2023-12-19T03:36:27.222Z,21.17
2023-12-19T03:37:27.289Z,21.16
2023-12-19T03:38:27.317Z,21.15
2023-12-19T03:39:27.472Z,21.12
2023-12-19T03:40:27.480Z,21.15
2023-12-19T03:41:27.549Z,21.20
2023-12-19T03:42:27.615Z,21.15
2023-12-19T03:43:27.636Z,21.12
2023-12-19T03:44:27.658Z,21.13
2023-12-19T03:45:27.738Z,21.14
2023-12-19T03:46:27.784Z,21.15
2023-12-19T03:47:27.880Z,21.09
2023-12-19T03:48:27.963Z,21.12
2023-12-19T03:49:28.055Z,21.12
2023-12-19T03:50:27.956Z,21.09
2023-12-19T03:51:28.090Z,21.11
2023-12-19T03:52:28.080Z,21.11
2023-12-19T03:53:28.118Z,21.06
2023-12-19T03:54:28.206Z,21.07
2023-12-19T03:55:28.236Z,21.05
2023-12-19T03:56:28.334Z,21.09
2023-12-19T03:57:28.352Z,21.12
2023-12-19T03:58:28.430Z,21.11
2023-12-19T03:59:28.433Z,21.16
2023-12-19T04:00:28.526Z,21.24
2023-12-19T04:01:28.719Z,21.18
2023-12-19T04:02:28.652Z,21.10
2023-12-19T04:03:28.694Z,21.12
2023-12-19T04:04:28.941Z,21.14
2023-12-19T04:05:28.924Z,21.12
2023-12-19T04:06:28.834Z,21.10
2023-12-19T04:07:28.895Z,21.08
2023-12-19T04:08:28.957Z,21.05
2023-12-19T04:09:29.100Z,21.07
2023-12-19T04:10:29.121Z,21.06
2023-12-19T04:11:29.143Z,21.06
2023-12-19T04:12:29.216Z,21.05
2023-12-19T04:13:29.232Z,21.10
2023-12-19T04:14:29.273Z,21.05
2023-12-19T04:15:29.325Z,21.06
2023-12-19T04:16:29.371Z,21.05
2023-12-19T04:17:29.413Z,21.12
2023-12-19T04:18:29.463Z,21.18
2023-12-19T04:19:29.581Z,21.16
2023-12-19T04:20:29.609Z,21.17
2023-12-19T04:21:29.708Z,21.19
2023-12-19T04:22:29.672Z,21.18
2023-12-19T04:23:29.667Z,21.13
2023-12-19T04:24:29.775Z,21.12
2023-12-19T04:25:29.776Z,21.09
2023-12-19T04:26:29.846Z,21.10
2023-12-19T04:27:37.138Z,21.11
2023-12-19T04:28:37.073Z,21.06
2023-12-19T04:29:37.084Z,21.07
2023-12-19T04:30:37.092Z,21.00
2023-12-19T04:31:44.416Z,21.11
2023-12-19T04:32:44.689Z,21.11
2023-12-19T04:33:44.494Z,21.10
2023-12-19T04:34:44.411Z,21.11
2023-12-19T04:35:44.340Z,21.06
2023-12-19T04:36:44.415Z,21.04
2023-12-19T04:37:44.332Z,21.03
2023-12-19T04:38:44.371Z,21.00
2023-12-19T04:39:44.402Z,21.04
2023-12-19T04:40:44.362Z,21.01
2023-12-19T04:41:44.388Z,21.03
2023-12-19T04:42:44.577Z,21.03
2023-12-19T04:43:44.353Z,21.03
2023-12-19T04:44:44.345Z,21.04
2023-12-19T04:45:44.406Z,21.02
2023-12-19T04:46:44.367Z,21.02
2023-12-19T04:47:44.409Z,20.99
2023-12-19T04:48:44.552Z,20.96
2023-12-19T04:49:44.521Z,20.98
2023-12-19T04:50:44.427Z,21.01
2023-12-19T04:51:44.477Z,21.02
2023-12-19T04:52:44.566Z,21.05
2023-12-19T04:53:44.368Z,21.00
2023-12-19T04:54:44.386Z,21.02
2023-12-19T04:55:44.562Z,21.05
2023-12-19T04:56:44.374Z,21.08
2023-12-19T04:57:44.467Z,20.98
2023-12-19T04:58:44.493Z,20.96
2023-12-19T04:59:44.576Z,20.97
2023-12-19T05:00:44.644Z,20.97
2023-12-19T05:01:44.662Z,21.03
2023-12-19T05:02:44.818Z,21.09
2023-12-19T05:03:44.773Z,21.18
2023-12-19T05:04:44.753Z,21.17
2023-12-19T05:05:44.861Z,21.13
2023-12-19T05:06:44.891Z,21.18
2023-12-19T05:07:44.972Z,21.23
2023-12-19T05:08:44.917Z,21.25
2023-12-19T05:09:45.067Z,21.32
2023-12-19T05:10:45.050Z,21.31
2023-12-19T05:11:45.106Z,21.36
2023-12-19T05:12:45.399Z,21.19
2023-12-19T05:13:45.254Z,21.28
2023-12-19T05:14:45.339Z,21.19
2023-12-19T05:15:45.396Z,21.16
2023-12-19T05:16:45.396Z,21.30
2023-12-19T05:17:48.546Z,21.32
2023-12-19T05:18:45.641Z,21.34
2023-12-19T05:19:50.610Z,21.32
2023-12-19T05:20:46.508Z,21.31
2023-12-19T05:21:45.500Z,21.26
2023-12-19T05:22:45.974Z,21.14
2023-12-19T05:23:45.515Z,21.17
2023-12-19T05:24:45.529Z,21.20
2023-12-19T05:25:45.487Z,21.10
2023-12-19T05:26:45.453Z,21.17
2023-12-19T05:27:45.589Z,21.22
2023-12-19T05:28:45.476Z,21.33
2023-12-19T05:29:45.491Z,21.30
2023-12-19T05:30:45.550Z,21.14
2023-12-19T05:31:45.519Z,21.10
2023-12-19T05:32:45.798Z,21.04
2023-12-19T05:33:45.710Z,21.01
2023-12-19T05:34:45.620Z,20.87
2023-12-19T05:35:45.571Z,20.76
2023-12-19T05:36:45.604Z,20.80
2023-12-19T05:37:45.630Z,20.71
2023-12-19T05:38:45.646Z,20.69
2023-12-19T05:39:45.663Z,20.68
2023-12-19T05:40:45.703Z,20.66
2023-12-19T05:41:45.757Z,20.60
2023-12-19T05:42:46.095Z,20.58
2023-12-19T05:43:45.784Z,20.51
2023-12-19T05:44:45.842Z,20.52
2023-12-19T05:45:45.928Z,20.52
2023-12-19T05:46:45.996Z,20.54
2023-12-19T05:47:46.146Z,20.53
2023-12-19T05:48:46.161Z,20.55
2023-12-19T05:49:46.176Z,20.52
2023-12-19T05:50:46.183Z,20.49
2023-12-19T05:51:46.278Z,20.51
2023-12-19T05:52:46.478Z,20.50
2023-12-19T05:53:46.414Z,20.45
2023-12-19T05:54:46.450Z,20.43
2023-12-19T05:55:46.486Z,20.43
2023-12-19T05:56:46.539Z,20.41
2023-12-19T05:57:46.674Z,20.37
2023-12-19T05:58:46.654Z,20.38
2023-12-19T05:59:46.737Z,20.34
2023-12-19T06:00:46.855Z,20.34
2023-12-19T06:01:46.992Z,20.35
2023-12-19T06:02:47.048Z,20.32
2023-12-19T06:03:47.108Z,20.32
2023-12-19T06:04:47.036Z,20.26
2023-12-19T06:05:47.218Z,20.24
2023-12-19T06:06:47.288Z,20.26
2023-12-19T06:07:47.171Z,20.29
2023-12-19T06:08:47.237Z,20.26
2023-12-19T06:09:47.243Z,20.27
2023-12-19T06:10:47.314Z,20.27
2023-12-19T06:11:47.248Z,20.25
2023-12-19T06:12:47.568Z,20.27
2023-12-19T06:13:47.268Z,20.27
2023-12-19T06:14:47.260Z,20.33
2023-12-19T06:15:47.316Z,20.96
2023-12-19T06:16:47.331Z,21.13
2023-12-19T06:17:47.323Z,21.69
2023-12-19T06:18:47.442Z,21.86
2023-12-19T06:19:47.481Z,22.22
2023-12-19T06:20:47.459Z,22.41
2023-12-19T06:21:47.554Z,22.63
2023-12-19T06:22:47.581Z,22.79
2023-12-19T06:23:47.604Z,22.82
2023-12-19T06:24:47.666Z,22.92
2023-12-19T06:25:47.656Z,23.06
2023-12-19T06:26:47.705Z,23.01
2023-12-19T06:27:47.746Z,23.03
2023-12-19T06:28:47.782Z,23.09
2023-12-19T06:29:47.765Z,23.08
2023-12-19T06:30:47.977Z,23.09
2023-12-19T06:31:47.938Z,23.11
2023-12-19T06:32:47.828Z,23.14
2023-12-19T06:33:48.285Z,23.39
2023-12-19T06:34:47.963Z,23.24
2023-12-19T06:35:48.124Z,23.21
2023-12-19T06:36:47.998Z,23.68
2023-12-19T06:37:48.003Z,23.72
2023-12-19T06:38:47.938Z,23.51
2023-12-19T06:39:48.013Z,23.57
2023-12-19T06:40:48.053Z,24.05
2023-12-19T06:41:48.631Z,23.80
2023-12-19T06:42:48.373Z,23.82
2023-12-19T06:43:48.123Z,23.64
2023-12-19T06:44:48.179Z,23.65
2023-12-19T06:45:48.244Z,23.69
2023-12-19T06:46:48.183Z,22.49
2023-12-19T06:47:48.332Z,22.54
2023-12-19T06:48:48.378Z,22.94
2023-12-19T06:49:48.392Z,22.82
2023-12-19T06:50:48.382Z,22.90
2023-12-19T06:51:48.553Z,23.00
2023-12-19T06:52:48.501Z,23.30
2023-12-19T06:53:48.499Z,23.46
2023-12-19T06:54:48.577Z,23.68
2023-12-19T06:55:49.072Z,23.66
2023-12-19T06:56:48.682Z,23.67
2023-12-19T06:57:48.757Z,23.70
2023-12-19T06:58:49.022Z,23.61
2023-12-19T06:59:48.793Z,23.69
2023-12-19T07:00:49.009Z,23.63
2023-12-19T07:01:48.894Z,23.56
2023-12-19T07:02:48.808Z,23.53
2023-12-19T07:03:49.146Z,23.66
2023-12-19T07:04:48.943Z,23.50
2023-12-19T07:05:49.017Z,23.57
2023-12-19T07:06:49.072Z,23.57
2023-12-19T07:07:49.697Z,24.11
2023-12-19T07:08:50.339Z,24.34
2023-12-19T07:09:49.207Z,24.59
2023-12-19T07:10:49.209Z,24.55
2023-12-19T07:11:49.202Z,24.53
2023-12-19T07:12:49.626Z,24.48
2023-12-19T07:13:49.298Z,24.45
2023-12-19T07:14:49.727Z,24.39
2023-12-19T07:15:49.407Z,24.44
2023-12-19T07:16:49.396Z,24.43
2023-12-19T07:17:49.443Z,24.36
2023-12-19T07:18:49.718Z,24.41
2023-12-19T07:19:50.958Z,24.41
2023-12-19T07:20:49.673Z,24.42
2023-12-19T07:21:49.708Z,24.49
2023-12-19T07:22:49.636Z,24.60
2023-12-19T07:23:49.657Z,24.59
2023-12-19T07:24:49.704Z,24.64
2023-12-19T07:25:50.517Z,24.72
2023-12-19T07:26:51.086Z,24.75
2023-12-19T07:27:49.873Z,24.74
2023-12-19T07:28:49.932Z,24.81
2023-12-19T07:29:50.528Z,24.80
2023-12-19T07:30:50.052Z,24.79
2023-12-19T07:31:50.138Z,24.85
2023-12-19T07:32:50.621Z,24.84
2023-12-19T07:33:50.324Z,24.74
2023-12-19T07:34:50.211Z,24.45
2023-12-19T07:35:50.170Z,24.20
2023-12-19T07:36:50.274Z,24.03
2023-12-19T07:37:50.296Z,23.94
2023-12-19T07:38:50.302Z,23.76
2023-12-19T07:39:51.070Z,24.21
2023-12-19T07:40:50.428Z,23.78
2023-12-19T07:41:50.598Z,23.84
2023-12-19T07:42:50.719Z,23.98
2023-12-19T07:43:50.658Z,23.93
2023-12-19T07:44:50.693Z,23.94
2023-12-19T07:45:50.782Z,24.14
2023-12-19T07:46:50.665Z,24.09
2023-12-19T07:47:51.257Z,24.05
2023-12-19T07:48:50.928Z,24.31
2023-12-19T07:49:51.887Z,24.25
2023-12-19T07:50:51.318Z,24.34
2023-12-19T07:51:51.022Z,24.62
2023-12-19T07:52:50.994Z,24.65
2023-12-19T07:53:50.862Z,24.68
2023-12-19T07:54:50.983Z,24.82
2023-12-19T07:55:51.098Z,25.01
2023-12-19T07:56:50.942Z,25.01
2023-12-19T07:57:50.965Z,25.01
2023-12-19T07:58:50.956Z,25.07
2023-12-19T07:59:51.012Z,24.98
2023-12-19T08:00:51.148Z,25.01
2023-12-19T08:01:51.469Z,25.22
2023-12-19T08:02:51.253Z,25.09
2023-12-19T08:03:52.516Z,25.05
2023-12-19T08:04:51.597Z,25.36
2023-12-19T08:05:51.440Z,25.03
2023-12-19T08:06:51.619Z,25.11
2023-12-19T08:07:51.676Z,25.22
2023-12-19T08:08:51.529Z,25.29
2023-12-19T08:09:52.140Z,25.36
2023-12-19T08:10:51.648Z,25.32
2023-12-19T08:11:51.840Z,25.45
2023-12-19T08:12:51.781Z,25.55
2023-12-19T08:13:52.265Z,25.47
2023-12-19T08:14:51.800Z,25.46
2023-12-19T08:15:52.836Z,25.39
2023-12-19T08:16:51.902Z,25.41
2023-12-19T08:17:51.933Z,25.45
2023-12-19T08:18:52.854Z,25.43
2023-12-19T08:19:51.959Z,25.46
2023-12-19T08:20:51.984Z,25.38
2023-12-19T08:21:52.131Z,25.41
2023-12-19T08:22:51.992Z,25.40
2023-12-19T08:23:52.049Z,25.39
2023-12-19T08:24:52.060Z,25.41
2023-12-19T08:25:52.061Z,25.37
2023-12-19T08:26:52.518Z,25.34
2023-12-19T08:27:52.129Z,25.43
2023-12-19T08:28:52.081Z,25.51
2023-12-19T08:29:52.543Z,25.79
2023-12-19T08:30:52.207Z,25.67
2023-12-19T08:31:52.156Z,25.51
2023-12-19T08:32:52.311Z,25.31
2023-12-19T08:33:52.447Z,25.27
2023-12-19T08:34:52.767Z,25.03
2023-12-19T08:35:52.248Z,24.99
2023-12-19T08:36:52.290Z,24.90
2023-12-19T08:37:52.510Z,24.90
2023-12-19T08:38:52.245Z,24.77
2023-12-19T08:39:52.346Z,24.59
2023-12-19T08:40:53.109Z,24.48
2023-12-19T08:41:52.596Z,24.28
2023-12-19T08:42:52.438Z,24.07
2023-12-19T08:43:52.432Z,23.81
2023-12-19T08:44:52.482Z,23.72
2023-12-19T08:45:52.687Z,23.56
2023-12-19T08:46:52.732Z,23.32
2023-12-19T08:47:53.640Z,23.45
2023-12-19T08:48:52.700Z,23.08
2023-12-19T08:49:52.746Z,23.23
2023-12-19T08:50:52.748Z,23.10
2023-12-19T08:51:53.226Z,22.85
2023-12-19T08:52:52.877Z,22.79
2023-12-19T08:53:52.870Z,22.79
2023-12-19T08:54:52.967Z,22.63
2023-12-19T08:55:53.946Z,22.72
2023-12-19T08:56:53.856Z,22.62
2023-12-19T08:57:53.120Z,22.57
2023-12-19T08:58:53.150Z,22.57
2023-12-19T08:59:53.262Z,22.39
2023-12-19T09:00:53.366Z,22.36
2023-12-19T09:01:53.445Z,22.37
2023-12-19T09:02:53.638Z,22.30
2023-12-19T09:03:53.728Z,22.14
2023-12-19T09:04:55.628Z,22.11
2023-12-19T09:05:53.799Z,22.12
2023-12-19T09:06:54.008Z,22.16
2023-12-19T09:07:53.841Z,22.00
2023-12-19T09:08:54.757Z,22.04
2023-12-19T09:09:54.057Z,21.97
2023-12-19T09:10:53.995Z,21.86
2023-12-19T09:11:54.159Z,22.00
2023-12-19T09:12:54.655Z,22.05
2023-12-19T09:13:54.234Z,21.77
2023-12-19T09:14:54.563Z,21.80
2023-12-19T09:15:54.510Z,21.71
2023-12-19T09:16:54.840Z,21.74
2023-12-19T09:17:54.611Z,21.67
2023-12-19T09:18:54.719Z,21.65
2023-12-19T09:19:55.207Z,21.63
2023-12-19T09:20:54.810Z,21.53
2023-12-19T09:21:54.784Z,21.55
2023-12-19T09:22:55.568Z,21.54
2023-12-19T09:23:54.818Z,21.37
2023-12-19T09:24:54.961Z,21.44
2023-12-19T09:25:55.057Z,21.24
2023-12-19T09:26:55.033Z,21.34
2023-12-19T09:27:55.790Z,21.31
2023-12-19T09:28:55.171Z,21.22
2023-12-19T09:29:55.195Z,21.24
2023-12-19T09:30:55.327Z,21.24
2023-12-19T09:31:55.411Z,21.22
2023-12-19T09:32:55.408Z,21.26
2023-12-19T09:33:55.553Z,21.28
2023-12-19T09:34:55.680Z,21.30
2023-12-19T09:35:55.656Z,21.12
2023-12-19T09:36:57.354Z,21.08
2023-12-19T09:37:55.667Z,20.69
2023-12-19T09:38:55.715Z,20.43
2023-12-19T09:39:57.167Z,20.17
2023-12-19T09:40:56.106Z,20.07
2023-12-19T09:41:56.023Z,20.17
2023-12-19T09:42:56.585Z,20.49
2023-12-19T09:43:55.913Z,20.54
2023-12-19T09:44:56.082Z,20.73
2023-12-19T09:45:56.098Z,20.87
2023-12-19T09:46:55.938Z,20.88
2023-12-19T09:47:56.611Z,20.94
2023-12-19T09:48:56.117Z,20.86
2023-12-19T09:49:56.106Z,20.91
2023-12-19T09:50:56.139Z,20.87
2023-12-19T09:51:56.269Z,20.88
2023-12-19T09:52:56.233Z,20.89
2023-12-19T09:53:56.414Z,20.95
2023-12-19T09:54:57.774Z,20.90
2023-12-19T09:55:56.462Z,20.85
2023-12-19T09:56:56.475Z,20.84
2023-12-19T09:57:56.969Z,20.89
2023-12-19T09:58:57.151Z,20.92
2023-12-19T09:59:57.679Z,20.88
2023-12-19T10:00:56.871Z,20.91
2023-12-19T10:01:56.854Z,20.96
2023-12-19T10:02:58.621Z,20.92
2023-12-19T10:03:57.161Z,20.94
2023-12-19T10:04:57.095Z,20.92
2023-12-19T10:05:57.297Z,20.95
2023-12-19T10:06:57.114Z,20.99
2023-12-19T10:07:57.003Z,20.92
2023-12-19T10:08:57.060Z,20.93
2023-12-19T10:09:57.939Z,20.94
2023-12-19T10:10:57.681Z,20.94
2023-12-19T10:11:57.406Z,20.97
2023-12-19T10:12:58.327Z,20.97
2023-12-19T10:13:57.420Z,20.99
2023-12-19T10:14:57.882Z,20.94
2023-12-19T10:16:28.780Z,20.92
2023-12-19T10:16:58.778Z,20.97
2023-12-19T10:17:57.545Z,20.99
2023-12-19T10:18:57.917Z,20.97
2023-12-19T10:19:57.475Z,20.97
2023-12-19T10:20:58.373Z,20.92
2023-12-19T10:21:57.464Z,20.98
2023-12-19T10:22:57.420Z,20.99
2023-12-19T10:23:57.538Z,20.99
2023-12-19T10:24:57.440Z,20.94
2023-12-19T10:25:59.333Z,20.90
2023-12-19T10:26:57.401Z,20.94
2023-12-19T10:27:57.414Z,20.91
2023-12-19T10:28:57.733Z,20.91
2023-12-19T10:29:57.374Z,20.88
2023-12-19T10:30:57.544Z,20.90
2023-12-19T10:31:57.434Z,20.99
2023-12-19T10:32:57.511Z,21.01
2023-12-19T10:33:57.932Z,20.99
2023-12-19T10:34:57.603Z,21.00
2023-12-19T10:35:57.602Z,20.96
2023-12-19T10:36:57.567Z,20.98
2023-12-19T10:37:57.475Z,21.02
2023-12-19T10:38:58.239Z,21.02
2023-12-19T10:39:57.493Z,21.10
2023-12-19T10:40:57.540Z,21.10
2023-12-19T10:41:57.500Z,21.05
2023-12-19T10:42:57.732Z,21.07
2023-12-19T10:43:57.584Z,21.00
2023-12-19T10:44:57.557Z,21.02
2023-12-19T10:45:57.619Z,21.02
2023-12-19T10:46:57.638Z,21.06
2023-12-19T10:47:58.248Z,21.05
2023-12-19T10:48:57.863Z,21.07
2023-12-19T10:49:57.841Z,21.03
2023-12-19T10:50:58.749Z,21.08
2023-12-19T10:51:58.699Z,21.12
2023-12-19T10:52:58.185Z,21.12
2023-12-19T10:53:58.019Z,21.14
2023-12-19T10:54:58.789Z,21.10
2023-12-19T10:55:57.902Z,21.13
2023-12-19T10:56:57.960Z,21.14
2023-12-19T10:57:58.083Z,21.14
2023-12-19T10:58:58.019Z,21.07
2023-12-19T10:59:58.284Z,21.09
2023-12-19T11:00:58.167Z,21.09
2023-12-19T11:01:58.080Z,21.06
2023-12-19T11:02:58.144Z,21.03
2023-12-19T11:03:59.331Z,21.01
2023-12-19T11:04:58.256Z,21.01
2023-12-19T11:05:58.136Z,21.02
2023-12-19T11:06:58.256Z,21.03
2023-12-19T11:07:59.485Z,21.07
2023-12-19T11:08:59.625Z,20.98
2023-12-19T11:09:58.219Z,20.96
2023-12-19T11:10:58.155Z,20.96
2023-12-19T11:11:58.167Z,20.92
2023-12-19T11:12:58.639Z,20.92
2023-12-19T11:13:58.670Z,20.88
2023-12-19T11:14:58.176Z,20.91
2023-12-19T11:15:58.349Z,20.88
2023-12-19T11:16:58.236Z,20.81
2023-12-19T11:17:59.125Z,20.72
2023-12-19T11:18:58.495Z,20.72
2023-12-19T11:19:58.802Z,20.70
2023-12-19T11:20:58.520Z,20.67
2023-12-19T11:21:58.626Z,20.69
2023-12-19T11:22:58.742Z,20.70
2023-12-19T11:23:59.161Z,20.64
2023-12-19T11:24:58.914Z,20.57
2023-12-19T11:25:58.817Z,20.53
2023-12-19T11:26:58.988Z,20.45
2023-12-19T11:27:59.106Z,20.45
2023-12-19T11:28:59.209Z,20.36
2023-12-19T11:29:59.149Z,20.27
2023-12-19T11:30:59.421Z,20.28
2023-12-19T11:31:59.316Z,20.25
2023-12-19T11:32:59.314Z,20.10
2023-12-19T11:33:59.582Z,20.05
2023-12-19T11:34:59.426Z,20.05
2023-12-19T11:35:59.666Z,20.04
2023-12-19T11:36:59.522Z,20.00
2023-12-19T11:37:59.572Z,20.03
2023-12-19T11:38:59.694Z,20.04
2023-12-19T11:39:59.692Z,20.00
2023-12-19T11:41:00.336Z,20.03
2023-12-19T11:41:59.933Z,19.99
2023-12-19T11:42:59.879Z,20.02
2023-12-19T11:44:00.012Z,20.04
2023-12-19T11:45:00.135Z,20.03
2023-12-19T11:46:00.189Z,20.04
2023-12-19T11:47:00.228Z,19.98
2023-12-19T11:48:00.590Z,20.00
2023-12-19T11:49:00.635Z,19.99
2023-12-19T11:50:00.549Z,19.99
2023-12-19T11:51:00.707Z,19.98
2023-12-19T11:52:00.537Z,19.95
2023-12-19T11:53:00.794Z,19.98
2023-12-19T11:54:00.609Z,19.94
2023-12-19T11:55:00.722Z,19.96
2023-12-19T11:56:00.896Z,19.91
2023-12-19T11:57:00.770Z,20.01
2023-12-19T11:58:03.264Z,19.98
2023-12-19T11:59:00.827Z,20.00
2023-12-19T12:00:00.834Z,20.02
2023-12-19T12:01:01.046Z,20.03
2023-12-19T12:02:00.829Z,19.99
2023-12-19T12:03:01.166Z,20.06
2023-12-19T12:04:00.880Z,20.04
2023-12-19T12:05:00.802Z,20.04
2023-12-19T12:06:00.924Z,20.10
2023-12-19T12:07:00.817Z,20.16
2023-12-19T12:08:00.957Z,20.10
2023-12-19T12:09:00.862Z,20.10
2023-12-19T12:10:01.496Z,20.14
2023-12-19T12:11:00.938Z,20.14
2023-12-19T12:12:00.829Z,20.18
2023-12-19T12:13:00.913Z,20.14
2023-12-19T12:14:01.032Z,20.17
2023-12-19T12:15:01.355Z,20.17
2023-12-19T12:16:00.872Z,20.19
2023-12-19T12:17:00.940Z,20.16
2023-12-19T12:18:00.895Z,20.21
2023-12-19T12:19:01.053Z,20.20
2023-12-19T12:20:01.978Z,20.15
2023-12-19T12:21:00.855Z,20.15
2023-12-19T12:22:00.884Z,20.16
2023-12-19T12:23:00.869Z,20.20
2023-12-19T12:24:00.849Z,20.20
2023-12-19T12:25:00.980Z,20.19
2023-12-19T12:26:00.817Z,20.20
2023-12-19T12:27:00.985Z,20.28
2023-12-19T12:28:01.068Z,20.31
2023-12-19T12:29:00.941Z,20.37
2023-12-19T12:30:00.851Z,20.36
2023-12-19T12:31:01.044Z,20.39
2023-12-19T12:32:00.863Z,20.39
2023-12-19T12:33:01.136Z,20.37
2023-12-19T12:34:01.004Z,20.37
2023-12-19T12:35:00.861Z,20.41
2023-12-19T12:36:00.889Z,20.40
2023-12-19T12:37:00.954Z,20.35
2023-12-19T12:38:00.868Z,20.35
2023-12-19T12:39:00.927Z,20.36
2023-12-19T12:40:00.924Z,20.30
2023-12-19T12:41:00.980Z,20.39
2023-12-19T12:42:00.854Z,20.39
2023-12-19T12:43:00.892Z,20.42
2023-12-19T12:44:00.904Z,20.37
2023-12-19T12:45:00.850Z,20.37
2023-12-19T12:46:00.915Z,20.40
2023-12-19T12:47:00.980Z,20.36
2023-12-19T12:48:00.998Z,20.35
2023-12-19T12:49:00.995Z,20.33
2023-12-19T12:50:00.972Z,20.35
2023-12-19T12:51:01.082Z,20.31
2023-12-19T12:52:00.982Z,20.30
2023-12-19T12:53:00.841Z,20.28